Time;durP1;ratioP1;P1;durP2;ratioP2;P2;SDS_P1;SDS_P2;PMS_P1;PMS_P2;Temp;Humidity;BMP_temperature;BMP_pressure;BME280_temperature;BME280_humidity;BME280_pressure;Samples;Min_cycle;Max_cycle;Signal;HPM_P1;HPM_P2
2021/04/20 00:02:36;;;;;;;32.22;18.13;;;;;;;6.93;100.00;101662.22;6253844;28;20055;-72
2021/04/20 00:05:37;;;;;;;29.17;16.63;;;;;;;6.91;100.00;101661.41;6253769;28;20049;-71
2021/04/20 00:08:38;;;;;;;31.83;17.25;;;;;;;6.91;100.00;101663.16;6253920;28;20535;-72
2021/04/20 00:11:40;;;;;;;32.75;18.60;;;;;;;6.86;100.00;101658.91;6253880;28;20128;-71
2021/04/20 00:14:41;;;;;;;37.10;19.40;;;;;;;6.83;100.00;101655.50;6253629;28;20057;-71
2021/04/20 00:17:42;;;;;;;39.47;18.98;;;;;;;6.81;100.00;101660.75;6253922;28;20512;-72
2021/04/20 00:20:42;;;;;;;33.78;19.35;;;;;;;6.81;100.00;101654.66;6253844;28;20073;-71
2021/04/20 00:23:43;;;;;;;34.65;18.75;;;;;;;6.78;100.00;101652.97;6249305;28;20064;-71
2021/04/20 00:26:45;;;;;;;31.00;17.83;;;;;;;6.69;100.00;101649.72;6250422;28;20087;-72
2021/04/20 00:29:46;;;;;;;35.67;17.98;;;;;;;6.66;100.00;101645.41;6249770;28;20110;-72
2021/04/20 00:32:47;;;;;;;29.83;17.73;;;;;;;6.55;100.00;101644.81;6249846;28;20053;-72
2021/04/20 00:35:48;;;;;;;32.33;17.67;;;;;;;6.52;100.00;101642.25;6249434;28;20064;-72
2021/04/20 00:38:49;;;;;;;30.52;18.05;;;;;;;6.49;100.00;101637.09;6249815;28;20053;-72
2021/04/20 00:42:01;;;;;;;27.50;15.50;;;;;;;6.44;100.00;101637.19;6249409;28;20056;-72
2021/04/20 00:45:02;;;;;;;31.25;16.58;;;;;;;6.44;100.00;101634.59;6249250;28;20076;-72
2021/04/20 00:48:04;;;;;;;29.40;17.13;;;;;;;6.40;100.00;101630.31;6249393;28;20057;-72
2021/04/20 00:51:06;;;;;;;30.10;17.17;;;;;;;6.36;100.00;101628.69;6249240;28;20441;-72
2021/04/20 00:54:07;;;;;;;30.10;16.55;;;;;;;6.33;100.00;101633.97;6249081;28;20084;-72
2021/04/20 00:57:09;;;;;;;31.60;16.92;;;;;;;6.29;100.00;101634.94;6249376;28;20056;-72
2021/04/20 01:00:13;;;;;;;30.27;17.10;;;;;;;6.28;100.00;101635.81;6249827;28;20052;-72
2021/04/20 01:03:15;;;;;;;30.67;17.40;;;;;;;6.25;100.00;101628.91;6248817;28;20528;-71
2021/04/20 01:06:16;;;;;;;30.80;16.42;;;;;;;6.23;100.00;101638.53;6248879;28;20118;-71
2021/04/20 01:09:17;;;;;;;26.88;16.13;;;;;;;6.21;100.00;101635.06;6248897;28;20057;-72
2021/04/20 01:12:19;;;;;;;30.25;17.23;;;;;;;6.16;100.00;101636.06;6248815;28;20494;-71
2021/04/20 01:15:20;;;;;;;31.40;17.73;;;;;;;6.14;100.00;101630.03;6248567;28;20045;-71
2021/04/20 01:18:26;;;;;;;24.95;14.85;;;;;;;6.13;100.00;101630.91;6248813;28;20049;-71
2021/04/20 01:21:27;;;;;;;27.83;16.05;;;;;;;6.10;100.00;101637.06;6248850;28;20069;-71
2021/04/20 01:24:30;;;;;;;24.05;14.80;;;;;;;6.03;100.00;101625.03;6248565;28;20053;-72
2021/04/20 01:27:31;;;;;;;28.90;15.25;;;;;;;6.00;100.00;101638.16;6248577;28;20053;-72
2021/04/20 01:30:34;;;;;;;29.58;15.82;;;;;;;5.95;100.00;101626.91;6229044;28;20058;-72
2021/04/20 01:33:35;;;;;;;27.00;15.07;;;;;;;5.92;100.00;101624.41;6233910;28;20426;-72
2021/04/20 01:36:36;;;;;;;30.30;14.98;;;;;;;5.95;100.00;101626.91;6240372;28;20050;-71
2021/04/20 01:39:38;;;;;;;29.55;16.17;;;;;;;5.92;100.00;101621.78;6248547;28;20060;-72
2021/04/20 01:42:39;;;;;;;27.90;15.60;;;;;;;5.87;100.00;101626.19;6248257;28;20045;-72
2021/04/20 01:45:42;;;;;;;26.17;14.85;;;;;;;5.84;100.00;101620.13;6248230;28;20045;-71
2021/04/20 01:48:43;;;;;;;26.73;14.65;;;;;;;5.75;100.00;101622.94;6248283;28;20049;-72
2021/04/20 01:51:44;;;;;;;30.23;16.15;;;;;;;5.74;100.00;101625.56;6247995;28;20061;-72
2021/04/20 01:54:46;;;;;;;28.33;14.32;;;;;;;5.70;100.00;101622.16;6248046;28;20052;-71
2021/04/20 01:57:50;;;;;;;27.70;14.52;;;;;;;5.73;100.00;101623.88;6247950;28;20541;-71
2021/04/20 02:00:52;;;;;;;26.33;14.75;;;;;;;5.69;100.00;101619.59;6247940;28;20050;-72
2021/04/20 02:03:53;;;;;;;25.05;14.02;;;;;;;5.64;100.00;101624.91;6247530;28;20588;-72
2021/04/20 02:06:54;;;;;;;31.83;15.90;;;;;;;5.60;100.00;101623.22;6247613;28;20049;-72
2021/04/20 02:09:56;;;;;;;28.50;14.98;;;;;;;5.57;100.00;101621.53;6247549;28;20056;-71
2021/04/20 02:12:57;;;;;;;25.65;15.32;;;;;;;5.57;100.00;101611.09;6247428;28;20097;-72
2021/04/20 02:16:00;;;;;;;29.05;15.25;;;;;;;5.53;100.00;101617.25;6247355;28;20049;-72
2021/04/20 02:19:04;;;;;;;25.73;13.98;;;;;;;5.51;100.00;101612.97;6247591;28;20056;-72
2021/04/20 02:22:06;;;;;;;22.23;13.40;;;;;;;5.48;100.00;101613.03;6247204;28;20429;-71
2021/04/20 02:25:11;;;;;;;25.27;13.77;;;;;;;5.47;100.00;101608.69;6247017;28;20560;-71
2021/04/20 02:28:12;;;;;;;29.35;14.77;;;;;;;5.44;100.00;101608.75;6247181;28;20057;-71
2021/04/20 02:31:14;;;;;;;23.35;13.10;;;;;;;5.43;100.00;101613.09;6247113;28;20045;-71
2021/04/20 02:34:14;;;;;;;24.27;12.48;;;;;;;5.34;100.00;101611.53;6247025;28;20060;-71
2021/04/20 02:37:17;;;;;;;29.60;13.50;;;;;;;5.31;100.00;101614.19;6247033;28;20513;-71
2021/04/20 02:40:21;;;;;;;28.83;14.23;;;;;;;5.32;100.00;101605.50;6247046;28;20715;-72
2021/04/20 02:43:22;;;;;;;29.75;14.20;;;;;;;5.28;100.00;101608.19;6246658;28;20056;-71
2021/04/20 02:46:23;;;;;;;23.45;13.98;;;;;;;5.24;100.00;101606.50;6246427;28;20053;-71
2021/04/20 02:49:24;;;;;;;26.40;15.05;;;;;;;5.22;100.00;101605.66;6246480;28;20053;-71
2021/04/20 02:52:26;;;;;;;22.85;13.45;;;;;;;5.23;100.00;101607.41;6247005;28;20052;-71
2021/04/20 02:55:28;;;;;;;26.13;14.23;;;;;;;5.10;100.00;101611.97;6246417;28;20050;-71
2021/04/20 02:58:29;;;;;;;26.50;12.40;;;;;;;5.09;100.00;101605.88;6247012;28;20249;-71
2021/04/20 03:01:32;;;;;;;24.67;13.30;;;;;;;5.09;100.00;101611.09;6246680;28;20049;-73
2021/04/20 03:04:34;;;;;;;22.35;12.48;;;;;;;5.06;100.00;101610.28;6246332;28;20057;-72
2021/04/20 03:07:35;;;;;;;21.00;12.13;;;;;;;5.00;100.00;101607.78;6246403;28;20424;-71
2021/04/20 03:10:39;;;;;;;20.38;11.77;;;;;;;4.92;100.00;101604.44;6246347;28;20490;-70
2021/04/20 03:13:40;;;;;;;24.38;13.00;;;;;;;4.90;100.00;101599.25;6246456;28;20513;-73
2021/04/20 03:16:41;;;;;;;20.40;11.82;;;;;;;4.88;100.00;101605.38;6246391;28;20049;-71
2021/04/20 03:19:42;;;;;;;21.27;11.60;;;;;;;4.87;100.00;101606.28;6246403;28;20429;-73
2021/04/20 03:22:45;;;;;;;23.67;13.13;;;;;;;4.87;100.00;101603.66;6246245;28;20132;-71
2021/04/20 03:25:46;;;;;;;25.15;12.70;;;;;;;4.82;100.00;101595.94;6246389;28;20108;-71
2021/04/20 03:28:47;;;;;;;24.48;13.23;;;;;;;4.75;100.00;101602.09;6246335;28;20517;-71
2021/04/20 03:31:49;;;;;;;25.17;12.73;;;;;;;4.74;100.00;101597.78;6246154;28;20172;-71
2021/04/20 03:34:54;;;;;;;22.27;12.52;;;;;;;4.71;100.00;101595.22;6246264;28;20468;-71
2021/04/20 03:38:03;;;;;;;20.85;12.38;;;;;;;4.64;100.00;101593.59;6245997;28;20056;-71
2021/04/20 03:41:11;;;;;;;20.58;11.88;;;;;;;4.58;100.00;101594.53;6246410;28;20060;-73
2021/04/20 03:44:16;;;;;;;23.83;12.27;;;;;;;4.58;100.00;101584.97;6245940;28;20053;-73
2021/04/20 03:47:21;;;;;;;21.45;12.20;;;;;;;4.55;100.00;101597.22;6246084;28;20112;-73
2021/04/20 03:50:26;;;;;;;21.38;11.35;;;;;;;4.55;100.00;101592.00;6246523;28;20050;-73
2021/04/20 03:53:28;;;;;;;26.38;12.18;;;;;;;4.52;100.00;101595.50;6245519;28;20114;-73
2021/04/20 03:56:31;;;;;;;21.30;12.38;;;;;;;4.55;100.00;101581.59;6246504;28;20417;-71
2021/04/20 03:59:34;;;;;;;24.67;12.18;;;;;;;4.56;100.00;101591.09;6250794;28;20045;-73
2021/04/20 04:02:38;;;;;;;26.65;13.10;;;;;;;4.55;100.00;101594.59;6250525;28;20411;-73
2021/04/20 04:05:40;;;;;;;23.75;12.23;;;;;;;4.50;100.00;101596.41;6250196;28;20050;-73
2021/04/20 04:08:43;;;;;;;25.90;12.48;;;;;;;4.47;100.00;101602.50;6248929;28;20056;-73
2021/04/20 04:11:48;;;;;;;17.98;11.23;;;;;;;4.44;100.00;101596.47;6248938;28;20091;-73
2021/04/20 04:14:49;;;;;;;22.02;11.93;;;;;;;4.41;100.00;101604.34;6249007;28;20064;-73
2021/04/20 04:17:51;;;;;;;27.00;12.23;;;;;;;4.40;100.00;101603.47;6248969;28;20076;-73
2021/04/20 04:20:53;;;;;;;20.92;11.98;;;;;;;4.30;100.00;101605.34;6248646;28;20045;-73
2021/04/20 04:23:57;;;;;;;22.13;11.82;;;;;;;4.32;100.00;101605.34;6248619;28;20084;-73
2021/04/20 04:27:02;;;;;;;20.70;12.30;;;;;;;4.32;100.00;101605.34;6248586;28;20049;-73
2021/04/20 04:30:10;;;;;;;25.92;12.93;;;;;;;4.33;100.00;101605.31;6248502;28;20417;-73
2021/04/20 04:33:13;;;;;;;22.38;13.20;;;;;;;4.30;100.00;101604.47;6248274;28;20096;-73
2021/04/20 04:36:15;;;;;;;22.13;12.57;;;;;;;4.26;100.00;101618.41;6248172;28;20493;-73
2021/04/20 04:39:17;;;;;;;26.38;14.25;;;;;;;4.24;100.00;101615.84;6248355;28;20421;-73
2021/04/20 04:42:19;;;;;;;21.65;12.43;;;;;;;4.23;100.00;101605.47;6248248;28;20493;-73
2021/04/20 04:45:20;;;;;;;25.75;13.90;;;;;;;4.22;100.00;101617.59;6248264;28;20053;-73
2021/04/20 04:48:22;;;;;;;29.73;12.80;;;;;;;4.24;100.00;101613.25;6248030;28;20050;-73
2021/04/20 04:51:25;;;;;;;26.38;12.68;;;;;;;4.23;100.00;101614.13;6248271;28;20111;-73
2021/04/20 04:54:26;;;;;;;25.38;12.23;;;;;;;4.26;100.00;101615.81;6247827;28;20049;-73
2021/04/20 04:57:29;;;;;;;26.50;13.32;;;;;;;4.30;100.00;101618.34;6248164;28;20053;-73
2021/04/20 05:00:31;;;;;;;26.17;13.25;;;;;;;4.31;100.00;101616.59;6247998;28;20057;-73
2021/04/20 05:03:32;;;;;;;26.55;12.85;;;;;;;4.36;100.00;101619.16;6247826;28;20049;-73
2021/04/20 05:06:34;;;;;;;22.77;12.80;;;;;;;4.33;100.00;101618.31;6254489;23;502141;-71
2021/04/20 05:09:35;;;;;;;25.48;15.30;;;;;;;4.37;100.00;101613.94;6272013;28;20048;-70
2021/04/20 05:12:37;;;;;;;25.23;13.07;;;;;;;4.40;100.00;101611.28;6273482;28;20065;-70
2021/04/20 05:15:38;;;;;;;24.38;13.70;;;;;;;4.45;100.00;101613.81;6265506;28;20049;-70
2021/04/20 05:18:40;;;;;;;23.98;13.93;;;;;;;4.53;100.00;101617.16;6248798;28;20060;-70
2021/04/20 05:21:41;;;;;;;24.67;13.05;;;;;;;4.57;100.00;101611.03;6249057;28;20045;-70
2021/04/20 05:24:43;;;;;;;23.80;13.50;;;;;;;4.64;100.00;101612.69;6248569;28;20080;-70
2021/04/20 05:27:48;;;;;;;26.35;13.38;;;;;;;4.66;100.00;101616.13;6248551;28;20057;-70
2021/04/20 05:30:52;;;;;;;24.67;12.55;;;;;;;4.70;100.00;101617.78;6248697;28;20050;-70
2021/04/20 05:33:56;;;;;;;19.75;11.60;;;;;;;4.74;100.00;101611.66;6248163;28;20057;-70
2021/04/20 05:36:57;;;;;;;25.27;11.98;;;;;;;4.74;100.00;101606.44;6248529;28;20049;-70
2021/04/20 05:40:05;;;;;;;25.13;11.80;;;;;;;4.79;100.00;101609.84;6248299;28;20068;-70
2021/04/20 05:43:07;;;;;;;22.65;10.27;;;;;;;4.86;100.00;101609.72;6248270;28;20056;-71
2021/04/20 05:46:08;;;;;;;25.15;9.98;;;;;;;4.87;99.92;101614.94;6235574;28;20050;-70
2021/04/20 05:49:09;;;;;;;24.20;11.23;;;;;;;4.94;99.78;101611.34;6234959;28;20505;-70
2021/04/20 05:52:10;;;;;;;22.70;10.05;;;;;;;5.00;99.07;101613.84;6237633;28;20710;-70
2021/04/20 05:55:12;;;;;;;17.05;10.15;;;;;;;5.04;98.58;101607.72;6234694;28;20046;-71
2021/04/20 05:58:14;;;;;;;19.25;8.52;;;;;;;5.17;98.88;101608.34;6233531;28;20056;-71
2021/04/20 06:01:15;;;;;;;20.02;9.65;;;;;;;5.20;96.53;101613.50;6235300;28;20054;-71
2021/04/20 06:04:16;;;;;;;21.67;9.02;;;;;;;5.18;95.81;101609.19;6241360;28;20457;-71
2021/04/20 06:07:18;;;;;;;14.70;8.48;;;;;;;5.22;97.17;101616.97;6235098;28;20522;-71
2021/04/20 06:10:19;;;;;;;15.30;8.15;;;;;;;5.29;94.93;101615.97;6241451;28;20504;-71
2021/04/20 06:13:21;;;;;;;24.42;9.23;;;;;;;5.27;95.33;101609.94;6247301;28;20045;-71
2021/04/20 06:16:22;;;;;;;18.27;7.00;;;;;;;5.35;93.48;101613.22;6244053;28;20041;-71
2021/04/20 06:19:24;;;;;;;11.80;6.80;;;;;;;5.45;93.96;101613.94;6230686;28;20097;-70
2021/04/20 06:22:26;;;;;;;19.85;7.15;;;;;;;5.45;93.31;101613.94;6231574;28;20043;-71
2021/04/20 06:25:27;;;;;;;25.40;7.18;;;;;;;5.44;93.86;101617.44;6232758;28;20045;-71
2021/04/20 06:28:31;;;;;;;12.10;7.00;;;;;;;5.49;94.26;101615.59;6234151;28;20056;-71
2021/04/20 06:31:33;;;;;;;22.25;7.20;;;;;;;5.57;94.27;101615.47;6232245;28;20115;-71
2021/04/20 06:34:34;;;;;;;14.98;6.93;;;;;;;5.69;93.69;101615.22;6232329;28;20140;-71
2021/04/20 06:37:36;;;;;;;16.48;7.03;;;;;;;5.75;93.55;101609.88;6233483;28;20054;-71
2021/04/20 06:40:40;;;;;;;14.55;6.40;;;;;;;5.82;93.52;101603.69;6235113;28;20461;-70
2021/04/20 06:43:51;;;;;;;17.08;6.22;;;;;;;5.82;92.11;101603.69;6232014;28;20045;-70
2021/04/20 06:46:56;;;;;;;14.65;6.38;;;;;;;5.88;92.45;101607.06;6232705;28;20049;-70
2021/04/20 06:50:04;;;;;;;14.85;6.60;;;;;;;5.94;92.33;101607.81;6232936;28;20111;-70
2021/04/20 06:53:08;;;;;;;16.23;6.63;;;;;;;5.95;91.89;101604.31;6225894;28;20046;-70
2021/04/20 06:56:20;;;;;;;17.48;6.28;;;;;;;5.96;91.64;101602.56;6234554;28;20049;-70
2021/04/20 06:59:32;;;;;;;16.73;7.13;;;;;;;5.96;91.94;101593.00;6246801;28;20056;-70
2021/04/20 07:02:41;;;;;;;16.20;6.85;;;;;;;6.04;92.08;101596.31;6244378;28;20525;-70
2021/04/20 07:05:47;;;;;;;16.83;6.18;;;;;;;6.11;91.09;101597.03;6228389;28;20141;-70
2021/04/20 07:08:57;;;;;;;15.27;6.43;;;;;;;6.25;91.50;101601.94;6246722;28;20072;-70
2021/04/20 07:11:59;;;;;;;;;;;;;;;6.24;88.55;101595.03;6247365;28;20069;-70
2021/04/20 07:15:03;;;;;;;11.23;5.72;;;;;;;6.29;90.23;101591.41;6246810;28;19921;-70
2021/04/20 07:18:24;;;;;;;17.33;6.45;;;;;;;6.34;90.56;101591.31;6242100;28;20481;-70
2021/04/20 07:21:46;;;;;;;12.02;6.22;;;;;;;6.43;90.96;101590.25;6238611;28;20041;-70
2021/04/20 07:25:10;;;;;;;24.58;7.35;;;;;;;6.61;89.89;101588.06;6246876;28;20107;-71
2021/04/20 07:28:22;;;;;;;19.10;6.93;;;;;;;6.73;88.90;101584.31;6246434;28;20041;-70
2021/04/20 07:31:31;;;;;;;17.73;7.78;;;;;;;7.08;88.01;101585.19;6235075;28;20045;-70
2021/04/20 07:34:39;;;;;;;18.48;7.63;;;;;;;7.09;86.40;101586.94;6237176;28;20050;-70
2021/04/20 07:37:44;;;;;;;21.42;7.65;;;;;;;7.24;86.38;101583.06;6243146;28;20053;-70
2021/04/20 07:40:54;;;;;;;28.20;7.75;;;;;;;7.43;85.49;101586.03;6244059;28;20045;-70
2021/04/20 07:44:03;;;;;;;18.33;7.63;;;;;;;7.30;87.10;101586.34;6236495;28;20049;-70
2021/04/20 07:47:09;;;;;;;17.08;7.55;;;;;;;7.30;87.33;101586.34;6243325;28;20058;-72
2021/04/20 07:50:17;;;;;;;17.92;8.15;;;;;;;7.49;87.97;101583.25;6237530;28;20045;-70
2021/04/20 07:53:23;;;;;;;21.85;8.30;;;;;;;7.59;87.96;101582.97;6250386;28;20565;-71
2021/04/20 07:56:30;;;;;;;26.45;8.70;;;;;;;7.61;88.71;101583.78;6249079;28;20052;-71
2021/04/20 07:59:37;;;;;;;15.90;7.82;;;;;;;7.72;87.61;101569.53;6240150;28;20056;-70
2021/04/20 08:02:45;;;;;;;17.30;7.50;;;;;;;8.05;84.86;101576.41;6250867;28;20045;-71
2021/04/20 08:05:49;;;;;;;21.00;8.00;;;;;;;7.80;86.01;101573.63;6250501;28;20053;-71
2021/04/20 08:08:53;;;;;;;15.88;7.22;;;;;;;8.01;83.22;101580.03;6249659;28;20046;-70
2021/04/20 08:11:59;;;;;;;18.83;7.13;;;;;;;8.14;81.92;101568.28;6250348;28;20068;-71
2021/04/20 08:15:07;;;;;;;19.92;6.85;;;;;;;8.14;83.87;101565.69;6236543;28;20056;-70
2021/04/20 08:18:14;;;;;;;16.85;7.03;;;;;;;8.25;82.80;101567.09;6250268;28;20057;-71
2021/04/20 08:21:15;;;;;;;19.77;7.22;;;;;;;8.59;80.96;101567.81;6249978;28;20050;-71
2021/04/20 08:24:21;;;;;;;16.80;6.70;;;;;;;8.57;81.58;101569.59;6250081;28;20045;-71
2021/04/20 08:27:30;;;;;;;16.23;7.40;;;;;;;8.54;80.45;101563.59;6249966;28;20069;-70
2021/04/20 08:30:37;;;;;;;15.32;6.90;;;;;;;8.40;82.65;101566.66;6250148;28;20056;-71
2021/04/20 08:33:43;;;;;;;15.75;7.35;;;;;;;8.49;82.59;101561.13;6249529;28;20383;-70
2021/04/20 08:36:55;;;;;;;18.15;6.97;;;;;;;8.80;80.25;101557.53;6248870;28;20061;-71
2021/04/20 08:40:12;;;;;;;15.02;7.38;;;;;;;8.80;80.48;101558.38;6249256;28;20045;-70
2021/04/20 08:43:38;;;;;;;21.83;7.95;;;;;;;9.04;79.18;101558.50;6248557;28;20045;-70
2021/04/20 08:46:53;;;;;;;20.40;7.70;;;;;;;9.22;78.91;101556.97;6249563;28;20061;-71
2021/04/20 08:50:01;;;;;;;15.02;6.88;;;;;;;9.10;79.14;101561.75;6242169;28;20054;-71
2021/04/20 08:53:13;;;;;;;16.98;7.55;;;;;;;9.27;77.88;101552.47;6243544;28;20057;-70
2021/04/20 08:56:20;;;;;;;16.10;7.53;;;;;;;9.16;78.73;101552.81;6249431;28;20555;-70
2021/04/20 08:59:43;;;;;;;27.92;7.20;;;;;;;9.47;77.39;101549.13;6249513;28;20045;-71
2021/04/20 09:03:04;;;;;;;21.08;7.97;;;;;;;9.51;76.61;101553.34;6248998;28;20493;-73
2021/04/20 09:06:09;;;;;;;20.38;8.10;;;;;;;9.45;76.86;101548.31;6248931;28;20136;-73
2021/04/20 09:09:14;;;;;;;17.50;7.70;;;;;;;9.85;74.74;101545.06;6249093;28;20050;-71
2021/04/20 09:12:15;;;;;;;18.95;7.85;;;;;;;9.77;75.62;101549.78;6248875;28;20441;-71
2021/04/20 09:15:19;;;;;;;19.85;7.80;;;;;;;9.80;74.11;101541.78;6244045;28;20041;-74
2021/04/20 09:18:23;;;;;;;19.27;7.60;;;;;;;10.05;69.68;101539.94;6233909;28;20046;-73
2021/04/20 09:21:31;;;;;;;19.52;7.07;;;;;;;10.14;69.01;101531.72;6242398;28;20045;-73
2021/04/20 09:24:40;;;;;;;15.77;6.75;;;;;;;10.00;69.87;101541.88;6240019;28;20064;-74
2021/04/20 09:27:48;;;;;;;19.38;6.95;;;;;;;10.16;70.95;101539.50;6243212;28;20041;-73
2021/04/20 09:30:53;;;;;;;23.20;7.73;;;;;;;10.09;71.52;101533.66;6242931;28;20050;-73
2021/04/20 09:33:55;;;;;;;22.40;7.97;;;;;;;10.35;69.92;101539.69;6244343;28;20669;-74
2021/04/20 09:36:57;;;;;;;16.75;7.32;;;;;;;10.20;70.69;101537.63;6235582;28;20049;-74
2021/04/20 09:40:00;;;;;;;16.95;7.22;;;;;;;10.33;70.54;101533.63;6248173;28;20053;-73
2021/04/20 09:43:09;;;;;;;20.77;8.10;;;;;;;10.43;69.86;101527.09;6247514;28;20057;-74
2021/04/20 09:46:17;;;;;;;19.67;8.15;;;;;;;10.20;71.07;101533.22;6239167;28;20046;-73
2021/04/20 09:49:28;;;;;;;15.00;7.60;;;;;;;10.44;71.00;101528.81;6229378;28;20050;-72
2021/04/20 09:52:51;;;;;;;15.63;7.72;;;;;;;10.52;72.33;101531.13;6233632;28;20072;-73
2021/04/20 09:56:04;;;;;;;18.15;7.43;;;;;;;10.63;71.57;101536.81;6242651;28;20069;-73
2021/04/20 09:59:10;;;;;;;18.15;7.13;;;;;;;10.80;69.56;101533.47;6248006;28;20053;-72
2021/04/20 10:02:28;;;;;;;16.90;7.82;;;;;;;11.01;69.18;101529.94;6235183;28;20046;-72
2021/04/20 10:05:36;;;;;;;17.50;7.82;;;;;;;10.88;70.80;101529.59;6234115;28;20061;-72
2021/04/20 10:08:52;;;;;;;16.05;7.70;;;;;;;11.08;70.51;101525.28;6233649;28;20053;-72
2021/04/20 10:12:02;;;;;;;16.17;7.90;;;;;;;11.25;70.99;101527.19;6232718;28;20048;-72
2021/04/20 10:15:10;;;;;;;17.73;7.88;;;;;;;11.19;69.18;101523.03;6232501;28;20045;-72
2021/04/20 10:18:17;;;;;;;17.48;7.75;;;;;;;11.20;71.30;101523.91;6233125;28;20171;-72
2021/04/20 10:21:25;;;;;;;16.00;7.53;;;;;;;11.50;69.24;101519.06;6234744;28;20048;-72
2021/04/20 10:24:30;;;;;;;16.48;8.23;;;;;;;11.53;68.33;101524.19;6232613;28;20529;-72
2021/04/20 10:27:35;;;;;;;35.25;9.23;;;;;;;11.47;69.17;101519.19;6224210;28;20061;-72
2021/04/20 10:30:40;;;;;;;19.38;8.30;;;;;;;11.62;69.97;101515.88;6222653;28;20049;-72
2021/04/20 10:33:42;;;;;;;17.10;7.70;;;;;;;11.88;67.96;101505.03;6221692;28;20056;-72
2021/04/20 10:36:49;;;;;;;18.30;7.85;;;;;;;12.06;67.00;101498.03;6222627;28;20057;-72
2021/04/20 10:39:52;;;;;;;25.40;7.60;;;;;;;12.06;65.25;101500.69;6222244;28;20053;-73
2021/04/20 10:42:54;;;;;;;14.18;7.32;;;;;;;12.04;67.42;101501.69;6221394;28;20497;-74
2021/04/20 10:45:58;;;;;;;16.95;7.13;;;;;;;12.23;66.67;101496.41;6222412;28;20045;-73
2021/04/20 10:49:00;;;;;;;21.73;7.93;;;;;;;12.36;66.08;101489.59;6225554;28;20394;-70
2021/04/20 10:52:08;;;;;;;20.33;6.88;;;;;;;12.67;69.36;101484.50;6234103;28;20569;-72
2021/04/20 10:55:12;;;;;;;37.67;9.07;;;;;;;12.87;65.72;101486.13;6233223;28;20049;-73
2021/04/20 10:58:19;;;;;;;20.25;8.00;;;;;;;13.30;61.20;101486.56;6231822;28;20497;-73
2021/04/20 11:01:23;;;;;;;18.83;7.47;;;;;;;13.21;60.98;101473.81;6232749;28;20414;-73
2021/04/20 11:04:28;;;;;;;16.15;7.13;;;;;;;13.41;59.50;101472.81;6223731;28;20076;-73
2021/04/20 11:07:33;;;;;;;16.83;6.95;;;;;;;13.44;59.00;101469.97;6221462;28;20057;-73
2021/04/20 11:10:37;;;;;;;17.00;6.85;;;;;;;13.39;59.46;101472.03;6244993;23;20077;-74
2021/04/20 11:13:39;;;;;;;17.48;6.57;;;;;;;13.71;59.71;101473.78;6268446;28;20060;-73
2021/04/20 11:16:43;;;;;;;19.20;7.68;;;;;;;13.83;59.41;101469.63;6256104;28;20528;-74
2021/04/20 11:19:47;;;;;;;16.25;6.97;;;;;;;14.10;57.40;101461.09;6246070;28;20092;-74
2021/04/20 11:22:51;;;;;;;12.20;6.95;;;;;;;14.23;56.57;101464.72;6246224;28;20065;-74
2021/04/20 11:26:02;;;;;;;12.23;6.40;;;;;;;14.35;55.72;101460.53;6250850;28;20041;-75
2021/04/20 11:29:09;;;;;;;17.52;7.63;;;;;;;14.49;57.27;101457.09;6258002;28;20072;-74
2021/04/20 11:32:16;;;;;;;14.63;7.07;;;;;;;14.71;53.97;101458.41;6262061;28;20041;-75
2021/04/20 11:35:20;;;;;;;13.77;7.22;;;;;;;14.94;53.28;101445.59;6270944;28;20049;-75
2021/04/20 11:38:21;;;;;;;17.25;6.38;;;;;;;15.17;53.78;101447.72;6270883;28;20053;-75
2021/04/20 11:41:28;;;;;;;12.98;6.50;;;;;;;15.43;52.10;101434.63;6270862;28;20425;-74
2021/04/20 11:44:34;;;;;;;16.23;6.55;;;;;;;15.84;51.43;101439.13;6270601;28;20056;-75
2021/04/20 11:47:36;;;;;;;11.25;6.22;;;;;;;15.91;50.70;101436.00;6262732;28;20060;-74
2021/04/20 11:50:40;;;;;;;13.77;7.13;;;;;;;15.92;51.02;101440.34;6258721;28;20060;-75
2021/04/20 11:53:46;;;;;;;17.75;6.10;;;;;;;16.27;50.90;101431.91;6258626;28;20052;-74
2021/04/20 11:56:50;;;;;;;10.43;6.50;;;;;;;16.74;47.12;101422.56;6256972;28;20045;-74
2021/04/20 11:59:51;;;;;;;12.88;6.25;;;;;;;16.65;46.58;101417.84;6255951;28;20526;-74
2021/04/20 12:02:53;;;;;;;9.13;5.68;;;;;;;16.93;46.00;101420.31;6256381;28;20048;-75
2021/04/20 12:05:56;;;;;;;16.42;6.78;;;;;;;16.93;45.29;101417.69;6257507;28;20052;-74
2021/04/20 12:08:58;;;;;;;12.18;5.82;;;;;;;17.05;45.13;101425.75;6255768;28;20052;-74
2021/04/20 12:12:02;;;;;;;16.67;6.25;;;;;;;17.03;46.67;101409.06;6260437;28;20045;-75
2021/04/20 12:15:06;;;;;;;16.10;5.82;;;;;;;16.94;44.22;101416.75;6260380;28;20052;-74
2021/04/20 12:18:09;;;;;;;28.48;6.78;;;;;;;17.07;46.95;101410.56;6258682;28;20052;-76
2021/04/20 12:21:12;;;;;;;9.77;5.57;;;;;;;17.65;44.12;101409.91;6260669;28;20425;-74
2021/04/20 12:24:17;;;;;;;11.70;6.25;;;;;;;17.77;42.85;101397.59;6257773;28;20041;-75
2021/04/20 12:27:24;;;;;;;15.75;5.82;;;;;;;17.71;43.51;101403.28;6248819;28;20064;-75
2021/04/20 12:30:26;;;;;;;11.18;5.50;;;;;;;17.93;43.78;101398.13;6249807;28;20054;-75
2021/04/20 12:33:29;;;;;;;13.80;5.57;;;;;;;18.20;40.11;101391.72;6249630;28;20553;-73
2021/04/20 12:36:34;;;;;;;11.93;5.25;;;;;;;18.16;42.47;101403.56;6249798;28;20061;-76
2021/04/20 12:39:37;;;;;;;13.00;5.78;;;;;;;18.12;40.78;101394.09;6249993;28;20095;-74
2021/04/20 12:42:43;;;;;;;15.43;5.03;;;;;;;18.30;40.89;101395.38;6249370;28;20429;-75
2021/04/20 12:45:44;;;;;;;14.85;5.95;;;;;;;18.53;38.00;101396.31;6248744;28;20563;-75
2021/04/20 12:48:46;;;;;;;11.45;5.50;;;;;;;18.16;39.40;101390.25;6249345;28;20526;-73
2021/04/20 12:51:48;;;;;;;12.13;5.13;;;;;;;18.36;38.94;101386.97;6249042;28;20060;-75
2021/04/20 12:54:52;;;;;;;17.75;5.07;;;;;;;18.56;40.09;101385.44;6248953;28;20060;-73
2021/04/20 12:57:56;;;;;;;11.90;5.07;;;;;;;18.85;38.01;101385.88;6249427;28;20045;-74
2021/04/20 13:00:59;;;;;;;9.65;5.10;;;;;;;18.69;38.75;101380.03;6249481;28;20057;-75
2021/04/20 13:04:01;;;;;;;14.40;4.65;;;;;;;18.98;38.62;101373.28;6249034;28;20068;-74
2021/04/20 13:07:04;;;;;;;9.95;4.93;;;;;;;18.85;34.97;101369.03;6249077;28;20045;-75
2021/04/20 13:10:06;;;;;;;8.63;4.85;;;;;;;18.42;36.27;101365.19;6248857;28;20056;-75
2021/04/20 13:13:09;;;;;;;12.75;5.20;;;;;;;18.75;36.64;101369.75;6248430;28;20050;-75
2021/04/20 13:16:10;;;;;;;21.17;5.90;;;;;;;18.60;37.10;101362.09;6248786;28;20049;-74
2021/04/20 13:19:12;;;;;;;14.15;5.13;;;;;;;19.00;36.75;101355.38;6248934;28;20118;-73
2021/04/20 13:22:14;;;;;;;15.40;5.25;;;;;;;19.04;36.07;101352.47;6248563;28;20041;-73
2021/04/20 13:25:16;;;;;;;16.23;5.00;;;;;;;19.04;37.82;101339.16;6248445;28;20054;-75
2021/04/20 13:28:27;;;;;;;9.60;4.72;;;;;;;19.34;35.85;101339.34;6248867;28;20049;-76
2021/04/20 13:31:31;;;;;;;16.67;5.43;;;;;;;19.59;34.75;101335.53;6249405;28;20053;-73
2021/04/20 13:34:37;;;;;;;12.25;4.95;;;;;;;19.76;33.13;101334.19;6258084;28;20053;-73
2021/04/20 13:37:39;;;;;;;12.93;5.40;;;;;;;19.47;32.77;101337.38;6273479;28;20106;-73
2021/04/20 13:40:40;;;;;;;12.02;4.82;;;;;;;19.16;34.55;101333.66;6260676;28;20066;-74
2021/04/20 13:43:47;;;;;;;16.38;4.90;;;;;;;19.33;34.33;101334.13;6258463;28;20053;-73
2021/04/20 13:46:49;;;;;;;8.65;5.20;;;;;;;19.35;33.17;101321.53;6247489;28;20099;-74
2021/04/20 13:49:51;;;;;;;8.60;4.75;;;;;;;19.14;34.59;101334.78;6248565;28;20053;-74
2021/04/20 13:52:53;;;;;;;11.85;5.22;;;;;;;19.45;34.00;101330.50;6248139;28;20056;-73
2021/04/20 13:56:06;;;;;;;12.02;5.03;;;;;;;19.47;32.87;101329.38;6248465;28;20095;-74
2021/04/20 13:59:11;;;;;;;8.68;4.97;;;;;;;19.39;34.14;101320.31;6248291;28;20077;-74
2021/04/20 14:02:13;;;;;;;17.85;4.95;;;;;;;19.82;31.04;101327.50;6247923;28;20168;-74
2021/04/20 14:05:16;;;;;;;16.52;4.72;;;;;;;19.31;33.42;101309.44;6247977;28;20060;-73
2021/04/20 14:08:24;;;;;;;8.77;4.80;;;;;;;19.49;31.24;101305.28;6248040;28;20049;-74